This is the latest recevied weather packets stored in our database for station/object DH1NAI-6. If no packets are shown the sender has not sent any weather packets the latest 10 day(s).
| Time | Temp. | Humidity | Pressure | Rain* | Wind** | Luminosity | Snow |
|---|---|---|---|---|---|---|---|
| 1777779443 | 13.33° C | 49% | 1013.5 hPa | 0 mm | - | 0 W/m² | - |
| 1777778819 | 13.33° C | 46% | 1013.5 hPa | 0 mm | - | 0 W/m² | - |
| 1777778195 | 13.33° C | 47% | 1013.7 hPa | 0 mm | - | 0 W/m² | - |
| 1777777586 | 13.33° C | 48% | 1013.6 hPa | 0 mm | - | 0 W/m² | - |
| 1777776979 | 13.33° C | 49% | 1013.7 hPa | 0 mm | - | 0 W/m² | - |
| 1777776371 | 12.78° C | 52% | 1013.8 hPa | 0 mm | - | 0 W/m² | - |
| 1777775763 | 13.33° C | 50% | 1013.6 hPa | 0 mm | - | 0 W/m² | - |
| 1777775154 | 12.78° C | 54% | 1013.7 hPa | 0 mm | - | 0 W/m² | - |
| 1777774547 | 12.22° C | 54% | 1013.9 hPa | 0 mm | - | 0 W/m² | - |
| 1777773932 | 12.78° C | 52% | 1013.7 hPa | 0 mm | - | 0 W/m² | - |
| 1777773331 | 11.67° C | 59% | 1014 hPa | 0 mm | - | 0 W/m² | - |
| 1777772722 | 12.22° C | 57% | 1014.2 hPa | 0 mm | - | 0 W/m² | - |
| 1777772098 | 12.78° C | 56% | 1014.1 hPa | 0 mm | - | 0 W/m² | - |
| 1777771475 | 12.78° C | 56% | 1014 hPa | 0 mm | - | 0 W/m² | - |
| 1777770867 | 11.67° C | 58% | 1013.8 hPa | 0 mm | - | 0 W/m² | - |
| 1777770259 | 11.11° C | 60% | 1014 hPa | 0 mm | - | 0 W/m² | - |
| 1777769650 | 11.11° C | 63% | 1014.1 hPa | 0 mm | - | 0 W/m² | - |
| 1777769043 | 10.56° C | 66% | 1014.2 hPa | 0 mm | - | 0 W/m² | - |
| 1777768435 | 9.44° C | 69% | 1014.2 hPa | 0 mm | - | 0 W/m² | - |
| 1777767827 | 10° C | 69% | 1014.2 hPa | 0 mm | - | 0 W/m² | - |
| 1777767212 | 9.44° C | 70% | 1014.3 hPa | 0 mm | - | 0 W/m² | - |
| 1777766611 | 9.44° C | 70% | 1014.5 hPa | 0 mm | - | 0 W/m² | - |
| 1777766003 | 9.44° C | 69% | 1014.5 hPa | 0 mm | - | 0 W/m² | - |
| 1777765379 | 9.44° C | 70% | 1014.5 hPa | 0 mm | - | 0 W/m² | - |
| 1777764754 | 9.44° C | 71% | 1014.8 hPa | 0 mm | - | 0 W/m² | - |
* Rain latest hour (hover to see other rain measurements)
** Current wind speed in m/s (hover to see current wind gust speed)